createdAt,value
2019-06-07T00:03:30.406Z,10.60
2019-06-07T00:08:56.059Z,11.63
2019-06-07T00:14:01.084Z,9.50
2019-06-07T00:19:07.203Z,10.20
2019-06-07T00:24:14.360Z,10.43
2019-06-07T00:29:21.681Z,11.20
2019-06-07T00:34:25.798Z,11.87
2019-06-07T00:39:30.758Z,12.33
2019-06-07T00:44:35.733Z,13.40
2019-06-07T00:49:41.742Z,14.33
2019-06-07T00:54:47.012Z,16.23
2019-06-07T00:59:52.079Z,14.50
2019-06-07T01:04:57.099Z,16.27
2019-06-07T01:10:02.158Z,16.60
2019-06-07T01:15:08.862Z,15.93
2019-06-07T01:20:14.241Z,15.43
2019-06-07T01:25:22.714Z,16.40
2019-06-07T01:30:26.843Z,15.70
2019-06-07T01:35:32.015Z,13.87
2019-06-07T01:40:36.963Z,15.30
2019-06-07T01:45:41.995Z,15.20
2019-06-07T01:50:46.942Z,16.10
2019-06-07T01:55:51.990Z,14.43
2019-06-07T02:00:56.943Z,15.43
2019-06-07T02:06:02.027Z,14.27
2019-06-07T02:11:07.150Z,13.67
2019-06-07T02:16:12.232Z,15.03
2019-06-07T02:21:17.283Z,16.00
2019-06-07T02:26:22.948Z,14.73
2019-06-07T02:31:36.244Z,15.67
2019-06-07T02:36:41.338Z,16.93
2019-06-07T02:41:42.339Z,15.93
2019-06-07T02:46:50.025Z,14.17
2019-06-07T02:51:54.885Z,15.47
2019-06-07T02:56:59.986Z,14.77
2019-06-07T03:02:05.098Z,18.03
2019-06-07T03:07:12.233Z,15.87
2019-06-07T03:12:20.403Z,16.30
2019-06-07T03:17:35.325Z,16.27
2019-06-07T03:22:42.051Z,15.40
2019-06-07T03:27:50.186Z,14.73
2019-06-07T03:32:55.223Z,14.17
2019-06-07T03:38:00.183Z,15.80
2019-06-07T03:43:05.286Z,15.60
2019-06-07T03:48:10.311Z,15.20
2019-06-07T03:53:15.286Z,14.67
2019-06-07T03:58:48.290Z,15.23
2019-06-07T04:03:36.081Z,15.33
2019-06-07T04:08:38.782Z,15.80
2019-06-07T04:13:42.633Z,14.90
2019-06-07T04:18:47.855Z,14.03
2019-06-07T04:23:52.907Z,15.97
2019-06-07T04:34:04.646Z,16.03
2019-06-07T04:39:09.630Z,15.50
2019-06-07T04:44:17.298Z,14.87
2019-06-07T04:49:25.164Z,16.00
2019-06-07T04:54:31.476Z,15.37
2019-06-07T05:04:44.365Z,17.00
2019-06-07T05:09:49.370Z,17.43
2019-06-07T05:14:54.326Z,14.17
2019-06-07T05:19:59.306Z,15.20
2019-06-07T05:25:05.122Z,13.67
2019-06-07T05:30:36.587Z,14.27
2019-06-07T05:35:17.599Z,12.67
2019-06-07T05:40:32.992Z,13.00
2019-06-07T05:45:42.328Z,12.63
2019-06-07T05:50:56.045Z,11.40
2019-06-07T05:55:52.642Z,12.30
2019-06-07T06:01:41.117Z,13.03
2019-06-07T06:06:04.651Z,12.27
2019-06-07T06:11:09.699Z,12.13
2019-06-07T06:16:14.745Z,11.43
2019-06-07T06:21:20.892Z,11.43
2019-06-07T06:26:25.888Z,13.23
2019-06-07T06:31:30.901Z,14.20
2019-06-07T06:36:37.365Z,14.87
2019-06-07T06:41:54.448Z,14.80
2019-06-07T06:46:57.270Z,13.23
2019-06-07T06:51:55.794Z,13.97
2019-06-07T06:57:18.539Z,12.80
2019-06-07T07:02:07.441Z,13.17
2019-06-07T07:07:12.542Z,12.37
2019-06-07T07:12:17.598Z,13.47
2019-06-07T07:17:47.057Z,12.13
2019-06-07T07:22:29.289Z,11.67
2019-06-07T07:27:34.262Z,13.37
2019-06-07T07:32:39.242Z,14.10
2019-06-07T07:37:46.166Z,12.93
2019-06-07T07:42:54.570Z,11.70
2019-06-07T07:48:14.174Z,10.97
2019-06-07T07:53:04.544Z,10.53
2019-06-07T07:58:09.627Z,10.47
2019-06-07T08:03:14.578Z,9.83
2019-06-07T08:08:19.770Z,9.60
2019-06-07T08:13:27.775Z,9.97
2019-06-07T08:18:33.834Z,9.13
2019-06-07T08:23:38.886Z,9.43
2019-06-07T08:28:44.929Z,9.00
2019-06-07T08:33:50.208Z,9.80
2019-06-07T08:39:02.999Z,8.70
2019-06-07T08:44:21.805Z,9.43
2019-06-07T08:49:08.481Z,8.67
2019-06-07T08:54:22.331Z,8.63
2019-06-07T08:59:20.198Z,7.23
2019-06-07T09:04:25.145Z,7.40
2019-06-07T09:09:30.179Z,8.20
2019-06-07T09:14:35.235Z,8.87
2019-06-07T09:19:41.418Z,8.60
2019-06-07T09:24:46.542Z,9.08
2019-06-07T09:29:51.714Z,8.28
2019-06-07T09:35:01.070Z,10.15
2019-06-07T09:51:33.807Z,8.70
2019-06-07T09:56:38.929Z,8.25
2019-06-07T10:01:43.971Z,8.20
2019-06-07T10:11:44.681Z,7.42
2019-06-07T10:16:49.937Z,7.40
2019-06-07T10:21:55.481Z,6.97
2019-06-07T10:27:01.705Z,6.35
2019-06-07T10:32:06.917Z,5.53
2019-06-07T10:37:15.674Z,6.17
2019-06-07T10:42:18.816Z,5.37
2019-06-07T10:47:23.784Z,5.33
2019-06-07T10:52:28.890Z,4.95
2019-06-07T10:57:34.002Z,5.47
2019-06-07T11:02:39.197Z,5.25
2019-06-07T11:07:44.182Z,4.20
2019-06-07T11:12:49.206Z,4.37
2019-06-07T11:17:54.071Z,4.50
2019-06-07T11:22:59.100Z,4.37
2019-06-07T11:28:04.258Z,4.33
2019-06-07T11:33:11.885Z,4.25
2019-06-07T11:38:15.712Z,3.55
2019-06-07T11:43:20.751Z,3.67
2019-06-07T11:48:25.719Z,3.95
2019-06-07T11:53:30.818Z,4.33
2019-06-07T11:58:35.726Z,3.72
2019-06-07T12:03:40.711Z,3.58
2019-06-07T12:08:45.706Z,3.80
2019-06-07T12:13:50.795Z,4.67
2019-06-07T12:18:55.732Z,4.37
2019-06-07T12:24:00.727Z,4.37
2019-06-07T12:29:05.783Z,3.60
2019-06-07T12:34:11.246Z,3.77
2019-06-07T12:39:16.422Z,3.55
2019-06-07T12:44:22.718Z,4.20
2019-06-07T12:49:27.963Z,4.47
2019-06-07T12:54:32.931Z,5.00
2019-06-07T12:59:37.894Z,4.85
2019-06-07T13:04:42.866Z,5.03
2019-06-07T13:09:47.837Z,5.35
2019-06-07T13:14:52.908Z,4.97
2019-06-07T13:19:57.929Z,4.40
2019-06-07T13:25:03.445Z,4.67
2019-06-07T13:30:10.949Z,4.42
2019-06-07T13:35:18.317Z,4.28
2019-06-07T13:40:23.669Z,4.80
2019-06-07T13:45:29.707Z,4.80
2019-06-07T13:50:34.757Z,5.20
2019-06-07T13:55:39.758Z,4.37
2019-06-07T14:00:44.831Z,4.70
2019-06-07T14:05:49.794Z,5.53
2019-06-07T14:10:54.688Z,5.00
2019-06-07T14:15:59.636Z,4.40
2019-06-07T14:21:04.706Z,4.15
2019-06-07T14:26:09.691Z,4.72
2019-06-07T14:31:14.729Z,5.08
2019-06-07T14:36:19.765Z,4.67
2019-06-07T14:41:25.179Z,4.35
2019-06-07T14:46:32.154Z,4.58
2019-06-07T14:51:38.303Z,4.70
2019-06-07T14:56:43.467Z,5.08
2019-06-07T15:01:48.474Z,4.50
2019-06-07T15:06:53.367Z,4.42
2019-06-07T15:11:58.339Z,4.30
2019-06-07T15:17:03.371Z,4.62
2019-06-07T15:22:08.334Z,4.80
2019-06-07T15:27:13.346Z,4.17
2019-06-07T15:32:18.242Z,4.20
2019-06-07T15:37:23.251Z,3.70
2019-06-07T15:42:45.123Z,4.35
2019-06-07T15:47:35.875Z,4.03
2019-06-07T15:52:43.220Z,3.75
2019-06-07T15:57:47.628Z,4.15
2019-06-07T16:02:52.662Z,4.42
2019-06-07T16:07:57.550Z,3.90
2019-06-07T16:13:02.601Z,3.45
2019-06-07T16:18:07.865Z,4.05
2019-06-07T16:23:12.987Z,3.85
2019-06-07T16:28:17.927Z,4.55
2019-06-07T16:33:22.867Z,4.20
2019-06-07T16:38:27.893Z,4.47
2019-06-07T16:43:32.912Z,4.60
2019-06-07T16:48:38.712Z,4.17
2019-06-07T16:53:44.545Z,5.75
2019-06-07T16:58:49.622Z,4.53
2019-06-07T17:03:54.664Z,4.65
2019-06-07T17:08:59.695Z,4.65
2019-06-07T17:14:05.106Z,3.98
2019-06-07T17:19:10.541Z,4.20
2019-06-07T17:24:15.474Z,4.92
2019-06-07T17:29:20.518Z,4.03
2019-06-07T17:34:25.526Z,4.03
2019-06-07T17:39:30.386Z,4.17
2019-06-07T17:44:35.354Z,4.92
2019-06-07T17:49:41.641Z,6.00
2019-06-07T17:54:47.933Z,5.47
2019-06-07T17:59:53.228Z,4.40
2019-06-07T18:04:58.306Z,4.40
2019-06-07T18:10:05.265Z,4.80
2019-06-07T18:15:11.683Z,4.70
2019-06-07T18:20:17.601Z,5.40
2019-06-07T18:25:22.547Z,5.72
2019-06-07T18:30:27.565Z,6.22
2019-06-07T18:35:32.519Z,5.40
2019-06-07T18:40:37.565Z,7.25
2019-06-07T18:45:42.582Z,6.53
2019-06-07T18:50:48.630Z,7.37
2019-06-07T18:55:54.044Z,6.22
2019-06-07T19:00:59.159Z,7.28
2019-06-07T19:06:04.302Z,7.47
2019-06-07T19:11:09.410Z,7.25
2019-06-07T19:16:14.427Z,7.22
2019-06-07T19:21:19.506Z,7.65
2019-06-07T19:26:24.484Z,7.78
2019-06-07T19:31:29.597Z,7.75
2019-06-07T19:36:47.964Z,8.90
2019-06-07T19:41:41.422Z,8.18
2019-06-07T19:46:46.407Z,8.43
2019-06-07T19:51:52.768Z,9.55
2019-06-07T19:56:57.779Z,9.68
2019-06-07T20:02:04.073Z,10.25
2019-06-07T20:07:09.385Z,10.03
2019-06-07T20:12:14.372Z,9.88
2019-06-07T20:17:19.410Z,9.18
2019-06-07T20:22:24.526Z,11.18
2019-06-07T20:27:29.571Z,8.88
2019-06-07T20:32:34.680Z,9.60
2019-06-07T20:37:39.701Z,8.90
2019-06-07T20:42:44.733Z,10.30
2019-06-07T20:47:49.855Z,10.07
2019-06-07T20:52:54.806Z,10.20
2019-06-07T20:58:00.822Z,11.13
2019-06-07T21:03:07.433Z,11.20
2019-06-07T21:08:13.188Z,9.43
2019-06-07T21:13:18.321Z,10.10
2019-06-07T21:18:23.275Z,12.07
2019-06-07T21:23:28.251Z,10.97
2019-06-07T21:28:33.359Z,9.60
2019-06-07T21:33:38.342Z,10.77
2019-06-07T21:38:44.390Z,12.70
2019-06-07T21:43:49.338Z,11.73
2019-06-07T21:48:54.287Z,15.83
2019-06-07T21:53:59.270Z,13.47
2019-06-07T21:59:05.067Z,12.13
2019-06-07T22:04:11.639Z,13.63
2019-06-07T22:09:16.978Z,13.40
2019-06-07T22:14:22.100Z,14.53
2019-06-07T22:19:27.155Z,12.83
2019-06-07T22:24:32.139Z,11.27
2019-06-07T22:29:37.169Z,12.67
2019-06-07T22:34:42.202Z,15.67
2019-06-07T22:39:47.240Z,14.57
2019-06-07T22:44:52.294Z,12.23
2019-06-07T22:49:57.311Z,14.20
2019-06-07T22:55:02.343Z,13.67
2019-06-07T23:00:10.419Z,11.40
2019-06-07T23:05:14.787Z,15.97
2019-06-07T23:10:20.157Z,15.10
2019-06-07T23:15:25.218Z,13.87
2019-06-07T23:20:30.287Z,13.47
2019-06-07T23:25:35.324Z,11.67
2019-06-07T23:30:40.329Z,12.27
2019-06-07T23:35:45.309Z,15.23
2019-06-07T23:40:50.318Z,13.13
2019-06-07T23:45:55.336Z,14.47
2019-06-07T23:51:00.409Z,9.63
2019-06-07T23:56:05.607Z,15.53
